Time,TemperatureF,DewpointF,PressureIn,WindDirection,WindDirectionDegrees,WindSpeedMPH,WindSpeedGustMPH,Humidity,HourlyPrecipIn,Conditions,Clouds,dailyrainin,SolarRadiationWatts/m^2,SoftwareType,DateUTC
2013-07-26 00:00:00,63.8,59.2,29.98,NE,51,0.0,0.0,85,0.00,,---,0.00,0.00,VWS V14.01,2013-07-26 04:00:00,
2013-07-26 00:01:00,64.2,59.3,29.97,NE,51,0.0,0.0,84,0.00,,---,0.00,0.00,VWS V14.01,2013-07-26 04:01:00,
2013-07-26 00:02:00,64.1,59.2,29.97,NE,51,0.0,0.0,84,0.00,,---,0.00,0.00,VWS V14.01,2013-07-26 04:02:00,
2013-07-26 00:03:00,64.0,59.1,29.98,NE,51,0.0,0.0,84,0.00,,---,0.00,0.00,VWS V14.01,2013-07-26 04:03:00,
2013-07-26 00:04:00,64.0,59.1,29.98,NE,51,0.0,0.0,84,0.00,,---,0.00,0.00,VWS V14.01,2013-07-26 04:04:00,
2013-07-26 00:09:00,63.8,59.2,29.97,NE,51,0.0,0.0,85,0.00,,---,0.00,0.00,VWS V14.01,2013-07-26 04:09:00,
2013-07-26 00:10:00,63.4,58.8,29.97,NE,51,0.0,0.0,85,0.00,,---,0.00,0.00,VWS V14.01,2013-07-26 04:10:00,
2013-07-26 00:14:00,63.5,58.9,29.98,NE,51,0.0,0.0,85,0.00,,---,0.00,0.00,VWS V14.01,2013-07-26 04:14:00,
2013-07-26 00:19:00,63.3,59.0,29.97,NE,51,0.0,0.0,86,0.00,,---,0.00,0.00,VWS V14.01,2013-07-26 04:19:00,
2013-07-26 00:20:00,63.0,58.8,29.98,NE,51,0.0,0.0,86,0.00,,---,0.00,0.00,VWS V14.01,2013-07-26 04:20:00,
2013-07-26 00:25:00,63.1,58.8,29.98,NE,51,0.0,0.0,86,0.00,,---,0.00,0.00,VWS V14.01,2013-07-26 04:25:00,
2013-07-26 00:30:00,63.0,59.1,29.97,NE,51,0.0,0.0,87,0.00,,---,0.00,0.00,VWS V14.01,2013-07-26 04:30:00,
2013-07-26 00:35:00,62.9,59.0,29.97,NE,51,0.0,0.0,87,0.00,,---,0.00,0.00,VWS V14.01,2013-07-26 04:35:00,
2013-07-26 00:40:00,62.8,58.9,29.97,NE,51,0.0,0.0,87,0.00,,---,0.00,0.00,VWS V14.01,2013-07-26 04:40:00,
2013-07-26 00:45:00,62.8,58.9,29.98,NE,51,0.0,1.0,87,0.00,,---,0.00,0.00,VWS V14.01,2013-07-26 04:45:00,
2013-07-26 00:50:00,62.8,58.9,29.97,NE,51,0.0,0.0,87,0.00,,---,0.00,0.00,VWS V14.01,2013-07-26 04:50:00,
2013-07-26 00:55:00,62.7,58.8,29.97,NE,51,0.0,0.0,87,0.00,,---,0.00,0.00,VWS V14.01,2013-07-26 04:55:00,
2013-07-26 01:00:00,62.6,58.7,29.98,NE,51,0.0,0.0,87,0.00,,---,0.00,0.00,VWS V14.01,2013-07-26 05:00:00,
2013-07-26 01:05:00,62.5,58.9,29.98,NE,51,0.0,0.0,88,0.00,,---,0.00,0.00,VWS V14.01,2013-07-26 05:05:00,
2013-07-26 01:10:00,62.4,58.8,29.98,NE,51,0.0,0.0,88,0.00,,---,0.00,0.00,VWS V14.01,2013-07-26 05:10:00,
2013-07-26 01:15:00,62.3,58.7,29.98,NE,51,0.0,0.0,88,0.00,,---,0.00,0.00,VWS V14.01,2013-07-26 05:15:00,
2013-07-26 01:20:00,62.2,58.6,29.98,NE,51,0.0,0.0,88,0.00,,---,0.00,0.00,VWS V14.01,2013-07-26 05:20:00,
2013-07-26 01:25:00,62.2,58.6,29.97,NE,51,0.0,0.0,88,0.00,,---,0.00,0.00,VWS V14.01,2013-07-26 05:25:00,
2013-07-26 01:30:00,62.2,58.9,29.97,NE,51,0.0,0.0,89,0.00,,---,0.00,0.00,VWS V14.01,2013-07-26 05:30:00,
2013-07-26 01:35:00,62.1,58.8,29.97,NE,51,0.0,0.0,89,0.00,,---,0.00,0.00,VWS V14.01,2013-07-26 05:35:00,
2013-07-26 01:40:00,61.7,58.4,29.97,NE,51,0.0,0.0,89,0.00,,---,0.00,0.00,VWS V14.01,2013-07-26 05:40:00,
2013-07-26 01:41:00,62.0,58.7,29.97,NE,51,0.0,0.0,89,0.00,,---,0.00,0.00,VWS V14.01,2013-07-26 05:41:00,
2013-07-26 01:46:00,61.8,58.5,29.96,NE,51,0.0,0.0,89,0.00,,---,0.00,0.00,VWS V14.01,2013-07-26 05:46:00,
2013-07-26 01:50:00,61.7,58.4,29.96,NE,51,0.0,0.0,89,0.00,,---,0.00,0.00,VWS V14.01,2013-07-26 05:50:00,
2013-07-26 01:51:00,61.7,58.4,29.96,NE,51,0.0,0.0,89,0.00,,---,0.00,0.00,VWS V14.01,2013-07-26 05:51:00,
2013-07-26 01:56:00,61.7,58.4,29.96,NE,51,0.0,0.0,89,0.00,,---,0.00,0.00,VWS V14.01,2013-07-26 05:56:00,
2013-07-26 02:00:00,61.7,58.4,29.97,NE,51,0.0,0.0,89,0.00,,---,0.00,0.00,VWS V14.01,2013-07-26 06:00:00,
2013-07-26 02:01:00,61.7,58.4,29.97,NE,51,0.0,0.0,89,0.00,,---,0.00,0.00,VWS V14.01,2013-07-26 06:01:00,
2013-07-26 02:06:00,61.7,58.4,29.97,NE,51,0.0,0.0,89,0.00,,---,0.00,0.00,VWS V14.01,2013-07-26 06:06:00,
2013-07-26 02:10:00,61.8,58.5,29.97,NE,51,0.0,0.0,89,0.00,,---,0.00,0.00,VWS V14.01,2013-07-26 06:10:00,
2013-07-26 02:12:00,61.7,58.4,29.97,NE,51,0.0,0.0,89,0.00,,---,0.00,0.00,VWS V14.01,2013-07-26 06:12:00,
2013-07-26 02:17:00,61.8,58.5,29.97,NE,51,0.0,0.0,89,0.00,,---,0.00,0.00,VWS V14.01,2013-07-26 06:17:00,
2013-07-26 02:20:00,61.8,58.2,29.97,NE,51,0.0,1.0,88,0.00,,---,0.00,0.00,VWS V14.01,2013-07-26 06:20:00,
2013-07-26 02:22:00,61.8,58.5,29.96,NE,51,0.0,0.0,89,0.00,,---,0.00,0.00,VWS V14.01,2013-07-26 06:22:00,
2013-07-26 02:27:00,61.8,58.5,29.96,NE,51,0.0,1.0,89,0.00,,---,0.00,0.00,VWS V14.01,2013-07-26 06:27:00,
2013-07-26 02:30:00,61.7,58.4,29.96,NE,51,0.0,0.0,89,0.00,,---,0.00,0.00,VWS V14.01,2013-07-26 06:30:00,
2013-07-26 02:32:00,61.8,58.2,29.96,NE,51,0.0,0.0,88,0.00,,---,0.00,0.00,VWS V14.01,2013-07-26 06:32:00,
2013-07-26 02:37:00,61.7,58.4,29.96,NE,51,0.0,0.0,89,0.00,,---,0.00,0.00,VWS V14.01,2013-07-26 06:37:00,
2013-07-26 02:40:00,61.4,58.1,29.96,NE,51,0.0,0.0,89,0.00,,---,0.00,0.00,VWS V14.01,2013-07-26 06:40:00,
2013-07-26 02:42:00,61.6,58.3,29.96,NE,51,0.0,0.0,89,0.00,,---,0.00,0.00,VWS V14.01,2013-07-26 06:42:00,
2013-07-26 02:47:00,61.4,58.1,29.96,NE,51,0.0,0.0,89,0.00,,---,0.00,0.00,VWS V14.01,2013-07-26 06:47:00,
2013-07-26 02:50:00,61.1,58.2,29.96,NE,51,0.0,0.0,90,0.00,,---,0.00,0.00,VWS V14.01,2013-07-26 06:50:00,
2013-07-26 02:52:00,61.3,58.3,29.96,NE,51,0.0,0.0,90,0.00,,---,0.00,0.00,VWS V14.01,2013-07-26 06:52:00,
2013-07-26 02:57:00,61.1,58.2,29.96,NE,51,0.0,0.0,90,0.00,,---,0.00,0.00,VWS V14.01,2013-07-26 06:57:00,
2013-07-26 03:00:00,60.9,58.0,29.96,NE,51,0.0,0.0,90,0.00,,---,0.00,0.00,VWS V14.01,2013-07-26 07:00:00,
2013-07-26 03:02:00,61.0,58.0,29.95,NE,51,0.0,0.0,90,0.00,,---,0.00,0.00,VWS V14.01,2013-07-26 07:02:00,
2013-07-26 03:08:00,60.9,58.0,29.96,NE,51,0.0,0.0,90,0.00,,---,0.00,0.00,VWS V14.01,2013-07-26 07:08:00,
2013-07-26 03:10:00,61.1,58.2,29.96,NE,51,0.0,1.0,90,0.00,,---,0.00,0.00,VWS V14.01,2013-07-26 07:10:00,
2013-07-26 03:13:00,60.9,58.0,29.96,NE,51,0.0,1.0,90,0.00,,---,0.00,0.00,VWS V14.01,2013-07-26 07:13:00,
2013-07-26 03:18:00,61.1,58.2,29.96,NE,51,0.0,1.0,90,0.00,,---,0.00,0.00,VWS V14.01,2013-07-26 07:18:00,
2013-07-26 03:20:00,60.9,58.0,29.96,NE,51,0.0,0.0,90,0.00,,---,0.00,0.00,VWS V14.01,2013-07-26 07:20:00,
2013-07-26 03:23:00,61.1,58.2,29.96,NE,51,0.0,0.0,90,0.00,,---,0.00,0.00,VWS V14.01,2013-07-26 07:23:00,
2013-07-26 03:28:00,61.0,58.0,29.96,NE,51,0.0,0.0,90,0.00,,---,0.00,0.00,VWS V14.01,2013-07-26 07:28:00,
2013-07-26 03:30:00,60.6,58.0,29.96,NE,51,0.0,0.0,91,0.00,,---,0.00,0.00,VWS V14.01,2013-07-26 07:30:00,
2013-07-26 03:33:00,60.8,58.2,29.95,NE,51,0.0,0.0,91,0.00,,---,0.00,0.00,VWS V14.01,2013-07-26 07:33:00,
2013-07-26 03:38:00,60.6,58.0,29.96,NE,51,0.0,0.0,91,0.00,,---,0.00,0.00,VWS V14.01,2013-07-26 07:38:00,
2013-07-26 03:40:00,60.4,57.8,29.95,NE,51,0.0,0.0,91,0.00,,---,0.00,0.00,VWS V14.01,2013-07-26 07:40:00,
2013-07-26 03:43:00,60.5,57.9,29.95,NE,51,0.0,0.0,91,0.00,,---,0.00,0.00,VWS V14.01,2013-07-26 07:43:00,
2013-07-26 03:48:00,60.4,57.8,29.95,NE,51,0.0,0.0,91,0.00,,---,0.00,0.00,VWS V14.01,2013-07-26 07:48:00,
2013-07-26 03:50:00,60.6,58.3,29.95,NE,51,0.0,1.0,92,0.00,,---,0.00,0.00,VWS V14.01,2013-07-26 07:50:00,
2013-07-26 03:53:00,60.4,58.1,29.95,NE,51,0.0,1.0,92,0.00,,---,0.00,0.00,VWS V14.01,2013-07-26 07:53:00,
2013-07-26 03:58:00,60.6,58.3,29.95,NE,51,0.0,1.0,92,0.00,,---,0.00,0.00,VWS V14.01,2013-07-26 07:58:00,
2013-07-26 04:00:00,60.5,58.2,29.95,NE,51,0.0,1.0,92,0.00,,---,0.00,0.00,VWS V14.01,2013-07-26 08:00:00,
2013-07-26 04:03:00,60.5,58.2,29.95,NE,51,0.0,1.0,92,0.00,,---,0.00,0.00,VWS V14.01,2013-07-26 08:03:00,
2013-07-26 04:08:00,60.5,58.2,29.95,NE,51,0.0,1.0,92,0.00,,---,0.00,0.00,VWS V14.01,2013-07-26 08:08:00,
2013-07-26 04:10:00,60.2,57.9,29.95,NE,51,0.0,0.0,92,0.00,,---,0.00,0.00,VWS V14.01,2013-07-26 08:10:00,
2013-07-26 04:13:00,60.4,58.1,29.95,NE,51,0.0,0.0,92,0.00,,---,0.00,0.00,VWS V14.01,2013-07-26 08:13:00,
2013-07-26 04:18:00,60.2,57.9,29.95,NE,51,0.0,0.0,92,0.00,,---,0.00,0.00,VWS V14.01,2013-07-26 08:18:00,
2013-07-26 04:20:00,60.0,58.0,29.95,NE,51,0.0,0.0,93,0.00,,---,0.00,0.00,VWS V14.01,2013-07-26 08:20:00,
2013-07-26 04:23:00,60.1,58.1,29.95,NE,51,0.0,0.0,93,0.00,,---,0.00,0.00,VWS V14.01,2013-07-26 08:23:00,
2013-07-26 04:28:00,60.0,58.0,29.95,NE,51,0.0,0.0,93,0.00,,---,0.00,0.00,VWS V14.01,2013-07-26 08:28:00,
2013-07-26 04:30:00,60.0,58.3,29.95,NE,51,0.0,0.0,94,0.00,,---,0.00,0.00,VWS V14.01,2013-07-26 08:30:00,
2013-07-26 04:34:00,60.1,58.4,29.96,NE,51,0.0,0.0,94,0.00,,---,0.00,0.00,VWS V14.01,2013-07-26 08:34:00,
2013-07-26 04:39:00,60.0,58.3,29.95,NE,51,0.0,0.0,94,0.00,,---,0.00,0.00,VWS V14.01,2013-07-26 08:39:00,
2013-07-26 04:40:00,60.0,58.3,29.95,NE,51,0.0,1.0,94,0.00,,---,0.00,0.00,VWS V14.01,2013-07-26 08:40:00,
2013-07-26 04:44:00,60.0,58.3,29.95,NE,51,0.0,1.0,94,0.00,,---,0.00,0.00,VWS V14.01,2013-07-26 08:44:00,
2013-07-26 04:49:00,60.0,58.3,29.95,NE,51,0.0,0.0,94,0.00,,---,0.00,0.00,VWS V14.01,2013-07-26 08:49:00,
2013-07-26 04:50:00,60.0,58.3,29.95,NE,51,0.0,0.0,94,0.00,,---,0.00,0.00,VWS V14.01,2013-07-26 08:50:00,
2013-07-26 04:54:00,60.0,58.3,29.95,NE,51,0.0,0.0,94,0.00,,---,0.00,0.00,VWS V14.01,2013-07-26 08:54:00,
2013-07-26 04:59:00,60.0,58.3,29.95,NE,51,0.0,0.0,94,0.00,,---,0.00,0.00,VWS V14.01,2013-07-26 08:59:00,
2013-07-26 05:00:00,60.0,58.3,29.95,NE,51,0.0,1.0,94,0.00,,---,0.00,0.00,VWS V14.01,2013-07-26 09:00:00,
2013-07-26 05:04:00,60.0,58.3,29.95,NE,51,0.0,0.0,94,0.00,,---,0.00,0.00,VWS V14.01,2013-07-26 09:04:00,
2013-07-26 05:09:00,59.9,58.2,29.95,NE,51,0.0,0.0,94,0.00,,---,0.00,0.00,VWS V14.01,2013-07-26 09:09:00,
2013-07-26 05:10:00,59.8,58.1,29.95,NE,51,0.0,0.0,94,0.00,,---,0.00,0.00,VWS V14.01,2013-07-26 09:10:00,
2013-07-26 05:14:00,59.9,58.2,29.95,NE,51,0.0,0.0,94,0.00,,---,0.00,0.00,VWS V14.01,2013-07-26 09:14:00,
2013-07-26 05:19:00,59.7,58.0,29.95,NE,51,0.0,0.0,94,0.00,,---,0.00,0.00,VWS V14.01,2013-07-26 09:19:00,
2013-07-26 05:20:00,59.4,58.0,29.95,NE,51,0.0,0.0,95,0.00,,---,0.00,0.00,VWS V14.01,2013-07-26 09:20:00,
2013-07-26 05:24:00,59.5,57.8,29.95,NE,51,0.0,0.0,94,0.00,,---,0.00,0.00,VWS V14.01,2013-07-26 09:24:00,
2013-07-26 05:29:00,59.4,57.7,29.95,NE,51,0.0,0.0,94,0.00,,---,0.00,0.00,VWS V14.01,2013-07-26 09:29:00,
2013-07-26 05:30:00,59.2,57.8,29.95,NE,51,0.0,0.0,95,0.00,,---,0.00,0.00,VWS V14.01,2013-07-26 09:30:00,
2013-07-26 05:34:00,59.3,57.9,29.96,NE,51,0.0,0.0,95,0.00,,---,0.00,0.00,VWS V14.01,2013-07-26 09:34:00,
2013-07-26 05:39:00,59.2,57.8,29.96,NE,51,0.0,0.0,95,0.00,,---,0.00,0.00,VWS V14.01,2013-07-26 09:39:00,
2013-07-26 05:40:00,59.3,58.2,29.96,NE,51,0.0,0.0,96,0.00,,---,0.00,0.00,VWS V14.01,2013-07-26 09:40:00,
2013-07-26 05:44:00,59.2,57.8,29.96,NE,51,0.0,0.0,95,0.00,,---,0.00,0.00,VWS V14.01,2013-07-26 09:44:00,
2013-07-26 05:49:00,59.4,58.3,29.96,NE,51,0.0,0.0,96,0.00,,---,0.00,0.00,VWS V14.01,2013-07-26 09:49:00,
2013-07-26 05:50:00,59.5,58.4,29.96,NE,51,0.0,0.0,96,0.00,,---,0.00,0.00,VWS V14.01,2013-07-26 09:50:00,
2013-07-26 05:55:00,59.5,58.4,29.96,NE,51,0.0,0.0,96,0.00,,---,0.00,0.00,VWS V14.01,2013-07-26 09:55:00,
2013-07-26 06:00:00,59.5,58.4,29.96,NE,51,0.0,0.0,96,0.00,,---,0.00,0.00,VWS V14.01,2013-07-26 10:00:00,
2013-07-26 06:05:00,59.3,58.2,29.96,NE,51,0.0,0.0,96,0.00,,---,0.00,0.00,VWS V14.01,2013-07-26 10:05:00,
2013-07-26 06:10:00,59.2,58.1,29.96,NE,51,0.0,0.0,96,0.00,,---,0.00,0.00,VWS V14.01,2013-07-26 10:10:00,
2013-07-26 06:15:00,59.1,58.0,29.95,ENE,60,0.0,0.0,96,0.00,,---,0.00,0.00,VWS V14.01,2013-07-26 10:15:00,
2013-07-26 06:20:00,58.9,57.5,29.95,ENE,59,0.0,0.0,95,0.00,,---,0.00,0.00,VWS V14.01,2013-07-26 10:20:00,
2013-07-26 06:25:00,58.7,57.3,29.95,ENE,59,0.0,0.0,95,0.00,,---,0.00,0.00,VWS V14.01,2013-07-26 10:25:00,
2013-07-26 06:30:00,58.6,57.5,29.96,ENE,59,0.0,0.0,96,0.00,,---,0.00,0.00,VWS V14.01,2013-07-26 10:30:00,
2013-07-26 06:35:00,58.5,57.4,29.96,ENE,59,0.0,0.0,96,0.00,,---,0.00,5.00,VWS V14.01,2013-07-26 10:35:00,
2013-07-26 06:40:00,58.5,57.4,29.95,ENE,59,0.0,0.0,96,0.00,,---,0.00,7.00,VWS V14.01,2013-07-26 10:40:00,
2013-07-26 06:45:00,58.5,57.4,29.96,ENE,59,0.0,0.0,96,0.00,,---,0.00,9.00,VWS V14.01,2013-07-26 10:45:00,
2013-07-26 06:50:00,58.5,57.4,29.96,ENE,59,0.0,0.0,96,0.00,,---,0.00,11.00,VWS V14.01,2013-07-26 10:50:00,
2013-07-26 06:56:00,58.5,57.4,29.96,ENE,59,0.0,0.0,96,0.00,,---,0.00,12.00,VWS V14.01,2013-07-26 10:56:00,
2013-07-26 07:00:00,58.8,58.0,29.96,ENE,59,0.0,0.0,97,0.00,,---,0.00,16.00,VWS V14.01,2013-07-26 11:00:00,
2013-07-26 07:01:00,58.6,57.8,29.96,ENE,59,0.0,0.0,97,0.00,,---,0.00,14.00,VWS V14.01,2013-07-26 11:01:00,
2013-07-26 07:06:00,58.7,57.8,29.96,ENE,59,0.0,0.0,97,0.00,,---,0.00,16.00,VWS V14.01,2013-07-26 11:06:00,
2013-07-26 07:10:00,58.8,58.0,29.96,ENE,59,0.0,0.0,97,0.00,,---,0.00,19.00,VWS V14.01,2013-07-26 11:10:00,
2013-07-26 07:11:00,58.8,58.0,29.96,ENE,59,0.0,0.0,97,0.00,,---,0.00,18.00,VWS V14.01,2013-07-26 11:11:00,
2013-07-26 07:16:00,58.8,58.0,29.96,ENE,59,0.0,0.0,97,0.00,,---,0.00,19.00,VWS V14.01,2013-07-26 11:16:00,
2013-07-26 07:20:00,59.1,58.2,29.97,ENE,59,0.0,0.0,97,0.00,,---,0.00,23.00,VWS V14.01,2013-07-26 11:20:00,
2013-07-26 07:21:00,58.9,58.0,29.96,ENE,59,0.0,0.0,97,0.00,,---,0.00,21.00,VWS V14.01,2013-07-26 11:21:00,
2013-07-26 07:26:00,59.0,58.2,29.97,ENE,59,0.0,0.0,97,0.00,,---,0.00,23.00,VWS V14.01,2013-07-26 11:26:00,
2013-07-26 07:30:00,59.3,58.5,29.98,ENE,59,0.0,0.0,97,0.00,,---,0.00,26.00,VWS V14.01,2013-07-26 11:30:00,
2013-07-26 07:31:00,59.1,58.2,29.97,ENE,59,0.0,0.0,97,0.00,,---,0.00,25.00,VWS V14.01,2013-07-26 11:31:00,
2013-07-26 07:36:00,59.3,58.5,29.97,ENE,59,0.0,0.0,97,0.00,,---,0.00,26.00,VWS V14.01,2013-07-26 11:36:00,
2013-07-26 07:40:00,59.9,59.0,29.99,ENE,59,0.0,0.0,97,0.00,,---,0.00,30.00,VWS V14.01,2013-07-26 11:40:00,
2013-07-26 07:41:00,59.5,58.7,29.98,ENE,59,0.0,0.0,97,0.00,,---,0.00,26.00,VWS V14.01,2013-07-26 11:41:00,
2013-07-26 07:46:00,59.8,59.2,29.99,ENE,59,0.0,0.0,98,0.00,,---,0.00,28.00,VWS V14.01,2013-07-26 11:46:00,
2013-07-26 07:50:00,60.5,59.9,29.98,ENE,59,0.0,0.0,98,0.00,,---,0.00,33.00,VWS V14.01,2013-07-26 11:50:00,
2013-07-26 07:52:00,60.0,59.4,29.99,ENE,59,0.0,0.0,98,0.00,,---,0.00,32.00,VWS V14.01,2013-07-26 11:52:00,
2013-07-26 07:57:00,60.4,59.8,29.98,ENE,59,0.0,0.0,98,0.00,,---,0.00,32.00,VWS V14.01,2013-07-26 11:57:00,
2013-07-26 08:00:00,61.0,60.4,29.98,ENE,59,0.0,1.0,98,0.00,,---,0.00,44.00,VWS V14.01,2013-07-26 12:00:00,
2013-07-26 08:02:00,60.7,60.1,29.98,ENE,59,0.0,1.0,98,0.00,,---,0.00,33.00,VWS V14.01,2013-07-26 12:02:00,
2013-07-26 08:07:00,60.9,60.3,29.98,ENE,59,0.0,1.0,98,0.00,,---,0.00,44.00,VWS V14.01,2013-07-26 12:07:00,
2013-07-26 08:10:00,61.8,61.2,29.98,ENE,59,0.0,2.0,98,0.00,,---,0.00,40.00,VWS V14.01,2013-07-26 12:10:00,
2013-07-26 08:12:00,61.3,60.7,29.98,ENE,59,0.0,1.0,98,0.00,,---,0.00,39.00,VWS V14.01,2013-07-26 12:12:00,
2013-07-26 08:17:00,61.7,61.1,29.98,ENE,59,0.0,2.0,98,0.00,,---,0.00,40.00,VWS V14.01,2013-07-26 12:17:00,
2013-07-26 08:20:00,62.5,61.9,29.99,ENE,59,0.0,2.0,98,0.00,,---,0.00,76.00,VWS V14.01,2013-07-26 12:20:00,
2013-07-26 08:22:00,62.0,61.4,29.98,ENE,59,0.0,2.0,98,0.00,,---,0.00,42.00,VWS V14.01,2013-07-26 12:22:00,
2013-07-26 08:27:00,62.4,61.8,29.99,ENE,59,0.0,2.0,98,0.00,,---,0.00,84.00,VWS V14.01,2013-07-26 12:27:00,
2013-07-26 08:30:00,63.3,62.4,29.99,NE,39,0.0,3.0,97,0.00,,---,0.00,258.00,VWS V14.01,2013-07-26 12:30:00,
2013-07-26 08:32:00,62.9,62.3,29.98,NNE,33,0.0,3.0,98,0.00,,---,0.00,149.00,VWS V14.01,2013-07-26 12:32:00,
2013-07-26 08:38:00,63.2,62.3,29.99,NE,39,0.0,3.0,97,0.00,,---,0.00,258.00,VWS V14.01,2013-07-26 12:38:00,
2013-07-26 08:40:00,64.3,62.8,29.99,NE,40,0.0,2.0,95,0.00,,---,0.00,302.00,VWS V14.01,2013-07-26 12:40:00,
2013-07-26 08:43:00,63.7,62.8,29.99,NE,39,0.0,1.0,97,0.00,,---,0.00,285.00,VWS V14.01,2013-07-26 12:43:00,
2013-07-26 08:48:00,64.2,62.7,29.99,NE,40,0.0,2.0,95,0.00,,---,0.00,302.00,VWS V14.01,2013-07-26 12:48:00,
2013-07-26 08:50:00,65.7,63.6,29.99,NE,40,0.0,1.0,93,0.00,,---,0.00,350.00,VWS V14.01,2013-07-26 12:50:00,
2013-07-26 08:53:00,64.9,63.1,29.99,NE,40,0.0,0.0,94,0.00,,---,0.00,320.00,VWS V14.01,2013-07-26 12:53:00,
2013-07-26 08:58:00,65.7,63.6,29.99,NE,40,0.0,1.0,93,0.00,,---,0.00,346.00,VWS V14.01,2013-07-26 12:58:00,
2013-07-26 09:00:00,67.4,64.7,29.99,NE,40,0.0,1.0,91,0.00,,---,0.00,385.00,VWS V14.01,2013-07-26 13:00:00,
2013-07-26 09:03:00,66.5,64.1,29.99,NE,40,0.0,1.0,92,0.00,,---,0.00,367.00,VWS V14.01,2013-07-26 13:03:00,
2013-07-26 09:08:00,67.3,64.6,29.99,NE,40,0.0,1.0,91,0.00,,---,0.00,385.00,VWS V14.01,2013-07-26 13:08:00,
2013-07-26 09:10:00,68.7,64.3,29.99,NE,40,0.0,2.0,86,0.00,,---,0.00,422.00,VWS V14.01,2013-07-26 13:10:00,
2013-07-26 09:13:00,68.1,64.4,29.99,NE,40,0.0,2.0,88,0.00,,---,0.00,404.00,VWS V14.01,2013-07-26 13:13:00,
2013-07-26 09:18:00,68.7,64.7,29.99,NE,40,0.0,2.0,87,0.00,,---,0.00,422.00,VWS V14.01,2013-07-26 13:18:00,
2013-07-26 09:20:00,70.0,64.9,30.00,NE,40,0.0,1.0,84,0.00,,---,0.00,454.00,VWS V14.01,2013-07-26 13:20:00,
2013-07-26 09:23:00,69.4,65.4,30.00,NE,40,0.0,1.0,87,0.00,,---,0.00,438.00,VWS V14.01,2013-07-26 13:23:00,
2013-07-26 09:28:00,70.0,65.3,30.00,NE,40,0.0,0.0,85,0.00,,---,0.00,454.00,VWS V14.01,2013-07-26 13:28:00,
2013-07-26 09:30:00,71.2,65.1,30.00,NE,40,0.0,1.0,81,0.00,,---,0.00,487.00,VWS V14.01,2013-07-26 13:30:00,
2013-07-26 09:33:00,70.6,65.9,30.00,NE,40,0.0,0.0,85,0.00,,---,0.00,469.00,VWS V14.01,2013-07-26 13:33:00,
2013-07-26 09:39:00,71.2,65.1,30.00,NE,40,0.0,0.0,81,0.00,,---,0.00,487.00,VWS V14.01,2013-07-26 13:39:00,
2013-07-26 09:40:00,72.3,66.5,30.00,NE,40,0.0,1.0,82,0.00,,---,0.00,520.00,VWS V14.01,2013-07-26 13:40:00,
2013-07-26 09:44:00,71.8,65.7,30.00,NE,40,0.0,1.0,81,0.00,,---,0.00,503.00,VWS V14.01,2013-07-26 13:44:00,
2013-07-26 09:49:00,72.4,66.6,30.00,NE,40,0.0,0.0,82,0.00,,---,0.00,524.00,VWS V14.01,2013-07-26 13:49:00,
2013-07-26 09:50:00,72.9,65.6,30.00,NE,40,0.0,2.0,78,0.00,,---,0.00,506.00,VWS V14.01,2013-07-26 13:50:00,
2013-07-26 09:54:00,72.8,65.9,30.00,NE,40,0.0,2.0,79,0.00,,---,0.00,538.00,VWS V14.01,2013-07-26 13:54:00,
2013-07-26 09:59:00,72.9,65.7,30.00,NE,40,0.0,0.0,78,0.00,,---,0.00,482.00,VWS V14.01,2013-07-26 13:59:00,
2013-07-26 10:00:00,72.6,65.7,30.00,NE,38,0.0,1.0,79,0.00,,---,0.00,515.00,VWS V14.01,2013-07-26 14:00:00,
2013-07-26 10:04:00,72.7,65.8,30.00,NE,40,0.0,1.0,79,0.00,,---,0.00,577.00,VWS V14.01,2013-07-26 14:04:00,
2013-07-26 10:09:00,72.7,65.8,30.00,NE,40,0.0,0.0,79,0.00,,---,0.00,550.00,VWS V14.01,2013-07-26 14:09:00,
2013-07-26 10:10:00,73.4,67.2,30.00,NE,40,1.0,2.0,81,0.00,,---,0.00,606.00,VWS V14.01,2013-07-26 14:10:00,
2013-07-26 10:14:00,73.1,66.6,30.00,NE,40,1.0,2.0,80,0.00,,---,0.00,598.00,VWS V14.01,2013-07-26 14:14:00,
2013-07-26 10:19:00,73.5,66.6,30.00,NE,38,0.0,1.0,79,0.00,,---,0.00,598.00,VWS V14.01,2013-07-26 14:19:00,
2013-07-26 10:20:00,74.1,66.4,30.00,NE,40,0.0,1.0,77,0.00,,---,0.00,624.00,VWS V14.01,2013-07-26 14:20:00,
2013-07-26 10:24:00,74.0,67.1,30.00,NE,40,0.0,1.0,79,0.00,,---,0.00,631.00,VWS V14.01,2013-07-26 14:24:00,
2013-07-26 10:29:00,74.1,66.4,30.00,NE,40,0.0,1.0,77,0.00,,---,0.00,640.00,VWS V14.01,2013-07-26 14:29:00,
2013-07-26 10:30:00,74.0,66.0,30.00,NE,40,1.0,1.0,76,0.00,,---,0.00,668.00,VWS V14.01,2013-07-26 14:30:00,
2013-07-26 10:35:00,74.3,67.0,30.00,NE,40,0.0,1.0,78,0.00,,---,0.00,649.00,VWS V14.01,2013-07-26 14:35:00,
2013-07-26 10:40:00,73.9,66.6,30.00,NE,40,0.0,1.0,78,0.00,,---,0.00,663.00,VWS V14.01,2013-07-26 14:40:00,
2013-07-26 10:45:00,74.0,67.1,30.00,NE,40,0.0,1.0,79,0.00,,---,0.00,622.00,VWS V14.01,2013-07-26 14:45:00,
2013-07-26 10:50:00,74.4,67.5,30.00,NE,38,0.0,2.0,79,0.00,,---,0.00,345.00,VWS V14.01,2013-07-26 14:50:00,
2013-07-26 10:55:00,74.8,67.9,30.00,West,273,0.0,2.0,79,0.00,,---,0.00,691.00,VWS V14.01,2013-07-26 14:55:00,
2013-07-26 11:00:00,75.3,67.6,29.99,NE,49,0.0,2.0,77,0.00,,---,0.00,722.00,VWS V14.01,2013-07-26 15:00:00,
2013-07-26 11:05:00,75.5,68.5,30.00,NE,50,0.0,2.0,79,0.00,,---,0.00,737.00,VWS V14.01,2013-07-26 15:05:00,
2013-07-26 11:10:00,75.9,67.4,30.00,NE,50,0.0,2.0,75,0.00,,---,0.00,758.00,VWS V14.01,2013-07-26 15:10:00,
2013-07-26 11:15:00,76.1,68.4,29.99,NE,43,0.0,2.0,77,0.00,,---,0.00,773.00,VWS V14.01,2013-07-26 15:15:00,
2013-07-26 11:20:00,76.3,68.2,29.99,NE,43,0.0,1.0,76,0.00,,---,0.00,788.00,VWS V14.01,2013-07-26 15:20:00,
2013-07-26 11:25:00,76.7,68.2,29.99,NE,37,0.0,1.0,75,0.00,,---,0.00,805.00,VWS V14.01,2013-07-26 15:25:00,
2013-07-26 11:30:00,77.5,68.2,29.99,WNW,289,1.0,2.0,73,0.00,,---,0.00,821.00,VWS V14.01,2013-07-26 15:30:00,
2013-07-26 11:31:00,77.0,68.1,29.99,West,281,0.0,2.0,74,0.00,,---,0.00,795.00,VWS V14.01,2013-07-26 15:31:00,
2013-07-26 11:36:00,77.3,68.4,29.99,WNW,290,0.0,2.0,74,0.00,,---,0.00,766.00,VWS V14.01,2013-07-26 15:36:00,
2013-07-26 11:40:00,78.2,68.8,29.99,SSW,202,0.0,1.0,73,0.00,,---,0.00,865.00,VWS V14.01,2013-07-26 15:40:00,
2013-07-26 11:41:00,77.7,68.0,29.99,WNW,290,0.0,1.0,72,0.00,,---,0.00,824.00,VWS V14.01,2013-07-26 15:41:00,
2013-07-26 11:46:00,78.1,68.8,29.99,South,172,0.0,1.0,73,0.00,,---,0.00,824.00,VWS V14.01,2013-07-26 15:46:00,
2013-07-26 11:50:00,78.5,69.5,29.99,SW,216,0.0,3.0,74,0.00,,---,0.00,870.00,VWS V14.01,2013-07-26 15:50:00,
2013-07-26 11:51:00,78.3,69.3,29.99,SW,214,0.0,3.0,74,0.00,,---,0.00,870.00,VWS V14.01,2013-07-26 15:51:00,
2013-07-26 11:56:00,78.4,68.6,29.99,SW,216,0.0,3.0,72,0.00,,---,0.00,872.00,VWS V14.01,2013-07-26 15:56:00,
2013-07-26 12:00:00,79.1,71.3,29.99,SW,217,0.0,3.0,77,0.00,,---,0.00,879.00,VWS V14.01,2013-07-26 16:00:00,
2013-07-26 12:01:00,78.7,69.3,29.99,SW,216,0.0,1.0,73,0.00,,---,0.00,904.00,VWS V14.01,2013-07-26 16:01:00,
2013-07-26 12:06:00,79.0,70.0,29.99,SW,216,0.0,2.0,74,0.00,,---,0.00,893.00,VWS V14.01,2013-07-26 16:06:00,
2013-07-26 12:10:00,78.9,68.3,29.99,WSW,257,0.0,5.0,70,0.00,,---,0.00,912.00,VWS V14.01,2013-07-26 16:10:00,
2013-07-26 12:11:00,79.2,69.4,29.99,WNW,296,3.0,3.0,72,0.00,,---,0.00,893.00,VWS V14.01,2013-07-26 16:11:00,
2013-07-26 12:16:00,78.9,68.7,29.99,SW,236,1.0,5.0,71,0.00,,---,0.00,900.00,VWS V14.01,2013-07-26 16:16:00,
2013-07-26 12:20:00,79.4,69.6,29.99,South,187,0.0,1.0,72,0.00,,---,0.00,925.00,VWS V14.01,2013-07-26 16:20:00,
2013-07-26 12:22:00,79.0,69.6,29.99,South,187,0.0,1.0,73,0.00,,---,0.00,932.00,VWS V14.01,2013-07-26 16:22:00,
2013-07-26 12:27:00,79.2,69.0,29.99,South,187,0.0,1.0,71,0.00,,---,0.00,882.00,VWS V14.01,2013-07-26 16:27:00,
2013-07-26 12:30:00,79.8,68.7,29.99,SW,225,2.0,5.0,69,0.00,,---,0.00,991.00,VWS V14.01,2013-07-26 16:30:00,
2013-07-26 12:32:00,79.7,69.1,29.99,NNE,30,0.0,4.0,70,0.00,,---,0.00,933.00,VWS V14.01,2013-07-26 16:32:00,
2013-07-26 12:37:00,79.8,69.2,29.99,SSW,205,1.0,4.0,70,0.00,,---,0.00,949.00,VWS V14.01,2013-07-26 16:37:00,
2013-07-26 12:40:00,79.5,68.4,29.98,WNW,288,1.0,9.0,69,0.00,,---,0.00,954.00,VWS V14.01,2013-07-26 16:40:00,
2013-07-26 12:42:00,79.6,68.1,29.99,WSW,240,0.0,9.0,68,0.00,,---,0.00,789.00,VWS V14.01,2013-07-26 16:42:00,
2013-07-26 12:47:00,79.5,68.9,29.99,WNW,287,0.0,9.0,70,0.00,,---,0.00,951.00,VWS V14.01,2013-07-26 16:47:00,
2013-07-26 12:50:00,80.3,69.6,29.98,WSW,245,2.0,3.0,70,0.00,,---,0.00,998.00,VWS V14.01,2013-07-26 16:50:00,
2013-07-26 12:52:00,79.8,68.3,29.98,WNW,287,0.0,1.0,68,0.00,,---,0.00,1016.00,VWS V14.01,2013-07-26 16:52:00,
2013-07-26 12:57:00,80.3,69.6,29.98,WSW,245,0.0,3.0,70,0.00,,---,0.00,1016.00,VWS V14.01,2013-07-26 16:57:00,
2013-07-26 13:00:00,80.9,68.0,29.98,WNW,288,0.0,3.0,65,0.00,,---,0.00,990.00,VWS V14.01,2013-07-26 17:00:00,
2013-07-26 13:02:00,80.5,68.1,29.98,WSW,245,0.0,2.0,66,0.00,,---,0.00,974.00,VWS V14.01,2013-07-26 17:02:00,
2013-07-26 13:07:00,80.9,68.0,29.98,WNW,285,0.0,3.0,65,0.00,,---,0.00,990.00,VWS V14.01,2013-07-26 17:07:00,
2013-07-26 13:10:00,80.9,69.8,29.98,WSW,241,1.0,6.0,69,0.00,,---,0.00,997.00,VWS V14.01,2013-07-26 17:10:00,
2013-07-26 13:13:00,81.0,69.4,29.98,WSW,238,3.0,6.0,68,0.00,,---,0.00,986.00,VWS V14.01,2013-07-26 17:13:00,
2013-07-26 13:18:00,80.9,68.5,29.98,WNW,290,0.0,6.0,66,0.00,,---,0.00,997.00,VWS V14.01,2013-07-26 17:18:00,
2013-07-26 13:20:00,81.1,69.1,29.98,West,264,1.0,7.0,67,0.00,,---,0.00,1032.00,VWS V14.01,2013-07-26 17:20:00,
2013-07-26 13:23:00,81.1,68.7,29.98,WSW,250,1.0,3.0,66,0.00,,---,0.00,990.00,VWS V14.01,2013-07-26 17:23:00,
2013-07-26 13:28:00,81.1,69.1,29.98,West,276,0.0,7.0,67,0.00,,---,0.00,1032.00,VWS V14.01,2013-07-26 17:28:00,
2013-07-26 13:30:00,81.3,68.0,29.97,NW,319,5.0,6.0,64,0.00,,---,0.00,1007.00,VWS V14.01,2013-07-26 17:30:00,
2013-07-26 13:33:00,81.2,68.8,29.98,West,263,0.0,3.0,66,0.00,,---,0.00,1005.00,VWS V14.01,2013-07-26 17:33:00,
2013-07-26 13:38:00,81.3,68.0,29.97,NW,319,5.0,6.0,64,0.00,,---,0.00,1007.00,VWS V14.01,2013-07-26 17:38:00,
2013-07-26 13:40:00,81.5,68.6,29.98,SSW,209,0.0,5.0,65,0.00,,---,0.00,1016.00,VWS V14.01,2013-07-26 17:40:00,
2013-07-26 13:43:00,81.4,67.6,29.98,NNW,345,0.0,5.0,63,0.00,,---,0.00,1007.00,VWS V14.01,2013-07-26 17:43:00,
2013-07-26 13:48:00,81.5,68.6,29.98,SSW,208,0.0,0.0,65,0.00,,---,0.00,1016.00,VWS V14.01,2013-07-26 17:48:00,
2013-07-26 13:50:00,82.0,68.2,29.97,South,180,1.0,3.0,63,0.00,,---,0.00,997.00,VWS V14.01,2013-07-26 17:50:00,
2013-07-26 13:53:00,81.7,69.2,29.97,West,274,0.0,3.0,66,0.00,,---,0.00,1007.00,VWS V14.01,2013-07-26 17:53:00,
2013-07-26 13:58:00,82.1,69.2,29.97,South,180,1.0,2.0,65,0.00,,---,0.00,997.00,VWS V14.01,2013-07-26 17:58:00,
2013-07-26 14:00:00,82.5,68.2,29.96,WNW,291,0.0,3.0,62,0.00,,---,0.00,1023.00,VWS V14.01,2013-07-26 18:00:00,
2013-07-26 14:03:00,82.3,68.9,29.97,South,180,0.0,2.0,64,0.00,,---,0.00,1016.00,VWS V14.01,2013-07-26 18:03:00,
2013-07-26 14:09:00,82.5,68.6,29.96,WSW,250,0.0,4.0,63,0.00,,---,0.00,1023.00,VWS V14.01,2013-07-26 18:09:00,
2013-07-26 14:10:00,82.3,68.5,29.96,SW,228,0.0,6.0,63,0.00,,---,0.00,1027.00,VWS V14.01,2013-07-26 18:10:00,
2013-07-26 14:14:00,82.4,67.1,29.96,SW,221,0.0,6.0,60,0.00,,---,0.00,1013.00,VWS V14.01,2013-07-26 18:14:00,
2013-07-26 14:19:00,82.4,69.0,29.96,WSW,239,1.0,4.0,64,0.00,,---,0.00,1023.00,VWS V14.01,2013-07-26 18:19:00,
2013-07-26 14:20:00,82.8,68.9,29.95,NNW,338,0.0,4.0,63,0.00,,---,0.00,1035.00,VWS V14.01,2013-07-26 18:20:00,
2013-07-26 14:24:00,82.5,68.6,29.96,NNW,340,2.0,4.0,63,0.00,,---,0.00,997.00,VWS V14.01,2013-07-26 18:24:00,
2013-07-26 14:29:00,82.9,69.5,29.95,WSW,252,0.0,9.0,64,0.00,,---,0.00,1046.00,VWS V14.01,2013-07-26 18:29:00,
2013-07-26 14:30:00,83.1,67.8,29.95,West,281,1.0,9.0,60,0.00,,---,0.00,997.00,VWS V14.01,2013-07-26 18:30:00,
2013-07-26 14:34:00,83.1,66.8,29.95,West,275,1.0,9.0,58,0.00,,---,0.00,1014.00,VWS V14.01,2013-07-26 18:34:00,
2013-07-26 14:37:00,83.1,68.3,29.95,NNW,340,4.0,9.0,61,0.00,,---,0.00,997.00,VWS V14.01,2013-07-26 18:37:00,
2013-07-26 14:40:00,83.4,68.6,29.94,WSW,246,1.0,5.0,61,0.00,,---,0.00,984.00,VWS V14.01,2013-07-26 18:40:00,
2013-07-26 14:42:00,83.1,66.8,29.94,WSW,246,0.0,5.0,58,0.00,,---,0.00,990.00,VWS V14.01,2013-07-26 18:42:00,
2013-07-26 14:47:00,83.3,68.5,29.94,WSW,246,0.0,5.0,61,0.00,,---,0.00,984.00,VWS V14.01,2013-07-26 18:47:00,
2013-07-26 14:50:00,84.2,66.8,29.95,WNW,284,0.0,4.0,56,0.00,,---,0.00,984.00,VWS V14.01,2013-07-26 18:50:00,
2013-07-26 14:53:00,83.8,68.0,29.95,NE,46,0.0,4.0,59,0.00,,---,0.00,1000.00,VWS V14.01,2013-07-26 18:53:00,
2013-07-26 14:58:00,84.2,66.8,29.95,WNW,284,0.0,4.0,56,0.00,,---,0.00,984.00,VWS V14.01,2013-07-26 18:58:00,
2013-07-26 15:00:00,84.3,69.4,29.94,NW,308,0.0,4.0,61,0.00,,---,0.00,969.00,VWS V14.01,2013-07-26 19:00:00,
2013-07-26 15:03:00,84.2,67.3,29.95,NW,309,1.0,4.0,57,0.00,,---,0.00,977.00,VWS V14.01,2013-07-26 19:03:00,
2013-07-26 15:08:00,84.2,69.3,29.94,NW,308,0.0,4.0,61,0.00,,---,0.00,969.00,VWS V14.01,2013-07-26 19:08:00,
2013-07-26 15:10:00,84.5,68.1,29.94,West,273,5.0,7.0,58,0.00,,---,0.00,933.00,VWS V14.01,2013-07-26 19:10:00,
2013-07-26 15:13:00,84.6,67.2,29.94,NW,313,1.0,5.0,56,0.00,,---,0.00,970.00,VWS V14.01,2013-07-26 19:13:00,
2013-07-26 15:18:00,84.5,68.1,29.94,WNW,286,2.0,7.0,58,0.00,,---,0.00,947.00,VWS V14.01,2013-07-26 19:18:00,
2013-07-26 15:20:00,84.3,66.9,29.94,West,266,2.0,6.0,56,0.00,,---,0.00,654.00,VWS V14.01,2013-07-26 19:20:00,
2013-07-26 15:23:00,84.3,67.4,29.94,SW,224,4.0,6.0,57,0.00,,---,0.00,554.00,VWS V14.01,2013-07-26 19:23:00,
2013-07-26 15:28:00,84.3,66.9,29.94,West,269,0.0,6.0,56,0.00,,---,0.00,654.00,VWS V14.01,2013-07-26 19:28:00,
2013-07-26 15:30:00,84.5,67.1,29.93,WSW,251,0.0,4.0,56,0.00,,---,0.00,905.00,VWS V14.01,2013-07-26 19:30:00,
2013-07-26 15:33:00,84.3,67.9,29.94,WSW,251,1.0,4.0,58,0.00,,---,0.00,939.00,VWS V14.01,2013-07-26 19:33:00,
2013-07-26 15:38:00,84.5,67.1,29.93,WSW,251,0.0,4.0,56,0.00,,---,0.00,905.00,VWS V14.01,2013-07-26 19:38:00,
2013-07-26 15:40:00,85.4,69.0,29.93,WSW,251,3.0,4.0,58,0.00,,---,0.00,895.00,VWS V14.01,2013-07-26 19:40:00,
2013-07-26 15:43:00,85.0,68.1,29.93,WSW,251,0.0,1.0,57,0.00,,---,0.00,905.00,VWS V14.01,2013-07-26 19:43:00,
2013-07-26 15:48:00,85.5,68.0,29.93,WSW,251,1.0,3.0,56,0.00,,---,0.00,895.00,VWS V14.01,2013-07-26 19:48:00,
2013-07-26 15:50:00,85.2,67.2,29.93,WNW,295,0.0,6.0,55,0.00,,---,0.00,877.00,VWS V14.01,2013-07-26 19:50:00,
2013-07-26 15:53:00,85.4,67.4,29.93,WNW,296,2.0,6.0,55,0.00,,---,0.00,884.00,VWS V14.01,2013-07-26 19:53:00,
2013-07-26 15:59:00,85.2,67.2,29.93,WNW,295,0.0,2.0,55,0.00,,---,0.00,875.00,VWS V14.01,2013-07-26 19:59:00,
2013-07-26 16:00:00,85.4,69.0,29.93,WNW,295,0.0,2.0,58,0.00,,---,0.00,849.00,VWS V14.01,2013-07-26 20:00:00,
2013-07-26 16:04:00,85.4,67.4,29.93,WNW,295,0.0,2.0,55,0.00,,---,0.00,854.00,VWS V14.01,2013-07-26 20:04:00,
2013-07-26 16:09:00,85.5,69.1,29.93,WNW,295,0.0,0.0,58,0.00,,---,0.00,847.00,VWS V14.01,2013-07-26 20:09:00,
2013-07-26 16:10:00,85.7,67.7,29.92,WNW,294,0.0,3.0,55,0.00,,---,0.00,831.00,VWS V14.01,2013-07-26 20:10:00,
2013-07-26 16:14:00,85.7,68.2,29.92,WNW,292,1.0,3.0,56,0.00,,---,0.00,842.00,VWS V14.01,2013-07-26 20:14:00,
2013-07-26 16:19:00,85.7,67.7,29.92,WNW,294,0.0,1.0,55,0.00,,---,0.00,831.00,VWS V14.01,2013-07-26 20:19:00,
2013-07-26 16:20:00,85.4,66.9,29.92,West,259,0.0,3.0,54,0.00,,---,0.00,821.00,VWS V14.01,2013-07-26 20:20:00,
2013-07-26 16:24:00,85.7,68.2,29.92,West,259,0.0,3.0,56,0.00,,---,0.00,823.00,VWS V14.01,2013-07-26 20:24:00,
2013-07-26 16:29:00,85.4,68.4,29.92,West,259,0.0,1.0,57,0.00,,---,0.00,816.00,VWS V14.01,2013-07-26 20:29:00,
2013-07-26 16:30:00,85.9,68.4,29.91,NE,49,0.0,2.0,56,0.00,,---,0.00,766.00,VWS V14.01,2013-07-26 20:30:00,
2013-07-26 16:34:00,85.7,67.2,29.92,NNE,33,1.0,2.0,54,0.00,,---,0.00,768.00,VWS V14.01,2013-07-26 20:34:00,
2013-07-26 16:39:00,86.0,69.5,29.91,NE,53,0.0,1.0,58,0.00,,---,0.00,773.00,VWS V14.01,2013-07-26 20:39:00,
2013-07-26 16:40:00,86.1,69.6,29.91,NE,45,2.0,4.0,58,0.00,,---,0.00,761.00,VWS V14.01,2013-07-26 20:40:00,
2013-07-26 16:44:00,86.0,67.4,29.91,NW,314,0.0,3.0,54,0.00,,---,0.00,756.00,VWS V14.01,2013-07-26 20:44:00,
2013-07-26 16:50:00,86.0,68.0,29.91,NE,44,0.0,2.0,55,0.00,,---,0.00,744.00,VWS V14.01,2013-07-26 20:50:00,
2013-07-26 16:55:00,86.0,68.0,29.91,NE,34,4.0,4.0,55,0.00,,---,0.00,735.00,VWS V14.01,2013-07-26 20:55:00,
2013-07-26 17:00:00,85.7,69.2,29.91,NNE,27,1.0,3.0,58,0.00,,---,0.00,721.00,VWS V14.01,2013-07-26 21:00:00,
2013-07-26 17:05:00,85.2,67.2,29.92,NNE,27,0.0,3.0,55,0.00,,---,0.00,220.00,VWS V14.01,2013-07-26 21:05:00,
2013-07-26 17:10:00,85.0,67.0,29.91,NNE,27,0.0,1.0,55,0.00,,---,0.00,717.00,VWS V14.01,2013-07-26 21:10:00,
2013-07-26 17:15:00,85.3,67.8,29.91,NNE,26,0.0,2.0,56,0.00,,---,0.00,698.00,VWS V14.01,2013-07-26 21:15:00,
2013-07-26 17:20:00,85.6,69.1,29.91,West,280,0.0,0.0,58,0.00,,---,0.00,582.00,VWS V14.01,2013-07-26 21:20:00,
2013-07-26 17:25:00,85.7,68.7,29.91,WNW,290,0.0,1.0,57,0.00,,---,0.00,271.00,VWS V14.01,2013-07-26 21:25:00,
2013-07-26 17:30:00,85.5,69.1,29.91,WSW,255,0.0,1.0,58,0.00,,---,0.00,599.00,VWS V14.01,2013-07-26 21:30:00,
2013-07-26 17:35:00,85.6,68.1,29.91,WSW,255,0.0,1.0,56,0.00,,---,0.00,638.00,VWS V14.01,2013-07-26 21:35:00,
2013-07-26 17:40:00,86.1,70.6,29.91,WSW,242,0.0,3.0,60,0.00,,---,0.00,608.00,VWS V14.01,2013-07-26 21:40:00,
2013-07-26 17:45:00,86.2,69.7,29.91,SSE,155,1.0,3.0,58,0.00,,---,0.00,529.00,VWS V14.01,2013-07-26 21:45:00,
2013-07-26 17:50:00,86.1,71.6,29.91,East,94,0.0,1.0,62,0.00,,---,0.00,561.00,VWS V14.01,2013-07-26 21:50:00,
2013-07-26 17:55:00,86.3,72.7,29.91,East,94,0.0,1.0,64,0.00,,---,0.00,545.00,VWS V14.01,2013-07-26 21:55:00,
2013-07-26 18:00:00,86.2,71.7,29.91,NE,47,0.0,3.0,62,0.00,,---,0.00,527.00,VWS V14.01,2013-07-26 22:00:00,
2013-07-26 18:05:00,86.3,71.3,29.91,NE,47,0.0,3.0,61,0.00,,---,0.00,501.00,VWS V14.01,2013-07-26 22:05:00,
2013-07-26 18:10:00,86.0,69.0,29.91,NE,44,0.0,3.0,57,0.00,,---,0.00,250.00,VWS V14.01,2013-07-26 22:10:00,
2013-07-26 18:11:00,86.2,72.1,29.91,NE,46,0.0,2.0,63,0.00,,---,0.00,464.00,VWS V14.01,2013-07-26 22:11:00,
2013-07-26 18:16:00,86.2,70.2,29.91,NE,46,0.0,3.0,59,0.00,,---,0.00,445.00,VWS V14.01,2013-07-26 22:16:00,
2013-07-26 18:20:00,84.3,68.9,29.90,ENE,74,0.0,2.0,60,0.00,,---,0.00,316.00,VWS V14.01,2013-07-26 22:20:00,
2013-07-26 18:21:00,85.6,69.6,29.91,NE,44,1.0,1.0,59,0.00,,---,0.00,250.00,VWS V14.01,2013-07-26 22:21:00,
2013-07-26 18:26:00,84.7,69.8,29.90,ENE,78,1.0,2.0,61,0.00,,---,0.00,292.00,VWS V14.01,2013-07-26 22:26:00,
2013-07-26 18:30:00,84.1,69.2,29.91,ENE,69,0.0,1.0,61,0.00,,---,0.00,364.00,VWS V14.01,2013-07-26 22:30:00,
2013-07-26 18:31:00,83.9,69.0,29.91,ENE,69,0.0,1.0,61,0.00,,---,0.00,378.00,VWS V14.01,2013-07-26 22:31:00,
2013-07-26 18:36:00,84.0,69.1,29.91,ENE,67,0.0,1.0,61,0.00,,---,0.00,366.00,VWS V14.01,2013-07-26 22:36:00,
2013-07-26 18:40:00,84.2,69.3,29.91,SE,139,0.0,4.0,61,0.00,,---,0.00,272.00,VWS V14.01,2013-07-26 22:40:00,
2013-07-26 18:41:00,84.5,69.6,29.91,ENE,67,1.0,2.0,61,0.00,,---,0.00,359.00,VWS V14.01,2013-07-26 22:41:00,
2013-07-26 18:46:00,84.5,71.0,29.91,SE,134,3.0,3.0,64,0.00,,---,0.00,327.00,VWS V14.01,2013-07-26 22:46:00,
2013-07-26 18:50:00,83.6,68.3,29.90,SE,140,0.0,1.0,60,0.00,,---,0.00,258.00,VWS V14.01,2013-07-26 22:50:00,
2013-07-26 18:52:00,83.8,69.9,29.91,SE,136,0.0,0.0,63,0.00,,---,0.00,299.00,VWS V14.01,2013-07-26 22:52:00,
2013-07-26 18:57:00,83.6,70.1,29.90,SE,140,1.0,1.0,64,0.00,,---,0.00,265.00,VWS V14.01,2013-07-26 22:57:00,
2013-07-26 19:00:00,83.6,69.2,29.90,SE,140,0.0,1.0,62,0.00,,---,0.00,185.00,VWS V14.01,2013-07-26 23:00:00,
2013-07-26 19:02:00,83.7,71.1,29.90,SE,140,0.0,0.0,66,0.00,,---,0.00,244.00,VWS V14.01,2013-07-26 23:02:00,
2013-07-26 19:07:00,83.6,68.3,29.90,SE,140,0.0,1.0,60,0.00,,---,0.00,181.00,VWS V14.01,2013-07-26 23:07:00,
2013-07-26 19:10:00,83.2,68.4,29.90,SE,145,0.0,2.0,61,0.00,,---,0.00,118.00,VWS V14.01,2013-07-26 23:10:00,
2013-07-26 19:12:00,83.4,68.6,29.90,SE,140,0.0,2.0,61,0.00,,---,0.00,163.00,VWS V14.01,2013-07-26 23:12:00,
2013-07-26 19:17:00,83.2,68.4,29.90,SE,145,0.0,2.0,61,0.00,,---,0.00,120.00,VWS V14.01,2013-07-26 23:17:00,
2013-07-26 19:20:00,82.7,70.6,29.90,SE,145,0.0,1.0,67,0.00,,---,0.00,100.00,VWS V14.01,2013-07-26 23:20:00,
2013-07-26 19:22:00,83.0,68.7,29.90,SE,145,0.0,1.0,62,0.00,,---,0.00,76.00,VWS V14.01,2013-07-26 23:22:00,
2013-07-26 19:27:00,82.7,70.2,29.90,SE,145,0.0,1.0,66,0.00,,---,0.00,100.00,VWS V14.01,2013-07-26 23:27:00,
2013-07-26 19:30:00,82.5,71.7,29.90,SE,145,0.0,0.0,70,0.00,,---,0.00,97.00,VWS V14.01,2013-07-26 23:30:00,
2013-07-26 19:33:00,82.4,69.9,29.90,SE,145,0.0,0.0,66,0.00,,---,0.00,132.00,VWS V14.01,2013-07-26 23:33:00,
2013-07-26 19:38:00,82.4,71.6,29.90,SE,145,0.0,0.0,70,0.00,,---,0.00,98.00,VWS V14.01,2013-07-26 23:38:00,
2013-07-26 19:40:00,82.7,71.5,29.90,SE,145,0.0,0.0,69,0.00,,---,0.00,95.00,VWS V14.01,2013-07-26 23:40:00,
2013-07-26 19:43:00,82.5,71.3,29.90,SE,145,0.0,0.0,69,0.00,,---,0.00,107.00,VWS V14.01,2013-07-26 23:43:00,
2013-07-26 19:48:00,82.7,71.5,29.90,SE,145,0.0,0.0,69,0.00,,---,0.00,97.00,VWS V14.01,2013-07-26 23:48:00,
2013-07-26 19:50:00,81.7,69.7,29.90,SE,145,0.0,1.0,67,0.00,,---,0.00,76.00,VWS V14.01,2013-07-26 23:50:00,
2013-07-26 19:53:00,82.5,71.7,29.90,SE,145,0.0,0.0,70,0.00,,---,0.00,77.00,VWS V14.01,2013-07-26 23:53:00,
2013-07-26 19:58:00,81.7,69.7,29.90,SE,145,0.0,1.0,67,0.00,,---,0.00,76.00,VWS V14.01,2013-07-26 23:58:00,
2013-07-26 20:00:00,79.7,70.7,29.90,SE,145,0.0,1.0,74,0.00,,---,0.00,53.00,VWS V14.01,2013-07-27 00:00:00,
2013-07-26 20:03:00,80.6,69.9,29.90,SE,145,0.0,1.0,70,0.00,,---,0.00,65.00,VWS V14.01,2013-07-27 00:03:00,
2013-07-26 20:04:00,80.4,69.7,29.90,SE,145,0.0,1.0,70,0.00,,---,0.00,60.00,VWS V14.01,2013-07-27 00:04:00,
2013-07-26 20:09:00,79.5,70.5,29.90,SE,145,0.0,0.0,74,0.00,,---,0.00,51.00,VWS V14.01,2013-07-27 00:09:00,
2013-07-26 20:10:00,78.1,69.5,29.90,SE,145,0.0,0.0,75,0.00,,---,0.00,37.00,VWS V14.01,2013-07-27 00:10:00,
2013-07-26 20:14:00,78.7,69.7,29.90,SE,145,0.0,0.0,74,0.00,,---,0.00,42.00,VWS V14.01,2013-07-27 00:14:00,
2013-07-26 20:19:00,77.9,68.9,29.90,SE,145,0.0,0.0,74,0.00,,---,0.00,37.00,VWS V14.01,2013-07-27 00:19:00,
2013-07-26 20:20:00,76.7,68.6,29.91,SE,146,2.0,2.0,76,0.00,,---,0.00,5.00,VWS V14.01,2013-07-27 00:20:00,
2013-07-26 20:25:00,77.2,69.1,29.91,SE,145,0.0,0.0,76,0.00,,---,0.00,18.00,VWS V14.01,2013-07-27 00:25:00,
2013-07-26 20:30:00,76.5,68.4,29.92,ESE,103,9.0,10.0,76,0.00,,---,0.00,5.00,VWS V14.01,2013-07-27 00:30:00,
2013-07-26 20:35:00,75.7,68.0,29.92,SW,229,5.0,10.0,77,0.00,,---,0.00,5.00,VWS V14.01,2013-07-27 00:35:00,
2013-07-26 20:40:00,74.8,67.9,29.92,NNW,333,0.0,5.0,79,0.00,,---,0.00,0.00,VWS V14.01,2013-07-27 00:40:00,
2013-07-26 20:45:00,74.2,67.3,29.92,West,274,3.0,7.0,79,0.00,,---,0.00,0.00,VWS V14.01,2013-07-27 00:45:00,
2013-07-26 20:50:00,73.7,67.5,29.92,WSW,244,0.0,1.0,81,0.00,,---,0.00,0.00,VWS V14.01,2013-07-27 00:50:00,
2013-07-26 20:55:00,73.3,67.1,29.92,WSW,255,3.0,4.0,81,0.00,,---,0.00,0.00,VWS V14.01,2013-07-27 00:55:00,
2013-07-26 21:00:00,73.1,67.3,29.92,WNW,297,1.0,3.0,82,0.00,,---,0.00,0.00,VWS V14.01,2013-07-27 01:00:00,
2013-07-26 21:05:00,72.8,67.3,29.92,WNW,290,0.0,4.0,83,0.00,,---,0.00,0.00,VWS V14.01,2013-07-27 01:05:00,
2013-07-26 21:10:00,72.6,67.2,29.93,WSW,249,0.0,3.0,83,0.00,,---,0.00,0.00,VWS V14.01,2013-07-27 01:10:00,
2013-07-26 21:16:00,72.0,67.2,29.93,NW,322,0.0,6.0,85,0.00,,---,0.00,0.00,VWS V14.01,2013-07-27 01:16:00,
2013-07-26 21:20:00,70.8,67.1,29.92,WNW,288,0.0,6.0,88,0.00,,---,0.00,0.00,VWS V14.01,2013-07-27 01:20:00,
2013-07-26 21:21:00,71.6,67.2,29.93,WNW,302,0.0,6.0,86,0.00,,---,0.00,0.00,VWS V14.01,2013-07-27 01:21:00,
2013-07-26 21:26:00,71.0,67.3,29.92,WSW,245,3.0,6.0,88,0.00,,---,0.00,0.00,VWS V14.01,2013-07-27 01:26:00,
2013-07-26 21:30:00,70.0,66.6,29.92,WSW,240,1.0,4.0,89,0.01,,---,0.01,0.00,VWS V14.01,2013-07-27 01:30:00,
2013-07-26 21:31:00,70.4,67.0,29.92,WSW,239,0.0,4.0,89,0.00,,---,0.00,0.00,VWS V14.01,2013-07-27 01:31:00,
2013-07-26 21:36:00,70.1,66.7,29.92,WSW,239,1.0,4.0,89,0.01,,---,0.01,0.00,VWS V14.01,2013-07-27 01:36:00,
2013-07-26 21:40:00,69.4,66.3,29.92,WSW,252,0.0,3.0,90,0.05,,---,0.05,0.00,VWS V14.01,2013-07-27 01:40:00,
2013-07-26 21:41:00,69.8,66.7,29.92,WSW,252,0.0,3.0,90,0.01,,---,0.01,0.00,VWS V14.01,2013-07-27 01:41:00,
2013-07-26 21:47:00,69.5,66.4,29.92,WSW,252,0.0,3.0,90,0.02,,---,0.02,0.00,VWS V14.01,2013-07-27 01:47:00,
2013-07-26 21:50:00,68.9,66.5,29.93,WSW,252,0.0,1.0,92,0.08,,---,0.08,0.00,VWS V14.01,2013-07-27 01:50:00,
2013-07-26 21:52:00,69.3,66.6,29.93,WSW,252,0.0,1.0,91,0.07,,---,0.07,0.00,VWS V14.01,2013-07-27 01:52:00,
2013-07-26 21:57:00,69.0,66.6,29.93,WSW,252,0.0,1.0,92,0.08,,---,0.08,0.00,VWS V14.01,2013-07-27 01:57:00,
2013-07-26 22:00:00,68.5,66.4,29.94,WSW,252,0.0,0.0,93,0.08,,---,0.08,0.00,VWS V14.01,2013-07-27 02:00:00,
2013-07-26 22:02:00,68.8,66.4,29.94,WSW,252,0.0,0.0,92,0.08,,---,0.08,0.00,VWS V14.01,2013-07-27 02:02:00,
2013-07-26 22:07:00,68.6,66.5,29.94,WSW,252,0.0,0.0,93,0.08,,---,0.08,0.00,VWS V14.01,2013-07-27 02:07:00,
2013-07-26 22:10:00,68.3,66.5,29.94,WSW,252,0.0,1.0,94,0.08,,---,0.08,0.00,VWS V14.01,2013-07-27 02:10:00,
2013-07-26 22:12:00,68.4,66.3,29.94,WSW,252,0.0,1.0,93,0.08,,---,0.08,0.00,VWS V14.01,2013-07-27 02:12:00,
2013-07-26 22:17:00,68.3,66.5,29.94,WSW,252,0.0,1.0,94,0.08,,---,0.08,0.00,VWS V14.01,2013-07-27 02:17:00,
2013-07-26 22:20:00,68.1,66.3,29.94,WSW,252,0.0,0.0,94,0.08,,---,0.08,0.00,VWS V14.01,2013-07-27 02:20:00,
2013-07-26 22:22:00,68.2,66.4,29.94,WSW,252,0.0,0.0,94,0.08,,---,0.08,0.00,VWS V14.01,2013-07-27 02:22:00,
2013-07-26 22:27:00,68.1,66.3,29.94,WSW,252,0.0,0.0,94,0.08,,---,0.08,0.00,VWS V14.01,2013-07-27 02:27:00,
2013-07-26 22:30:00,68.0,66.2,29.94,WSW,252,0.0,0.0,94,0.08,,---,0.08,0.00,VWS V14.01,2013-07-27 02:30:00,
2013-07-26 22:32:00,68.1,66.3,29.94,WSW,252,0.0,0.0,94,0.08,,---,0.08,0.00,VWS V14.01,2013-07-27 02:32:00,
2013-07-26 22:37:00,68.0,66.2,29.94,WSW,252,0.0,0.0,94,0.08,,---,0.08,0.00,VWS V14.01,2013-07-27 02:37:00,
2013-07-26 22:40:00,68.0,66.5,29.94,WSW,252,0.0,0.0,95,0.07,,---,0.08,0.00,VWS V14.01,2013-07-27 02:40:00,
2013-07-26 22:42:00,68.0,66.5,29.94,WSW,252,0.0,0.0,95,0.07,,---,0.08,0.00,VWS V14.01,2013-07-27 02:42:00,
2013-07-26 22:47:00,68.0,66.5,29.94,WSW,252,0.0,0.0,95,0.07,,---,0.08,0.00,VWS V14.01,2013-07-27 02:47:00,
2013-07-26 22:50:00,67.8,66.3,29.94,WSW,252,0.0,0.0,95,0.03,,---,0.08,0.00,VWS V14.01,2013-07-27 02:50:00,
2013-07-26 22:52:00,67.9,66.4,29.93,WSW,252,0.0,0.0,95,0.03,,---,0.08,0.00,VWS V14.01,2013-07-27 02:52:00,
2013-07-26 22:57:00,67.9,66.4,29.94,WSW,252,0.0,0.0,95,0.03,,---,0.08,0.00,VWS V14.01,2013-07-27 02:57:00,
2013-07-26 23:00:00,67.7,66.2,29.94,WSW,252,0.0,0.0,95,0.00,,---,0.08,0.00,VWS V14.01,2013-07-27 03:00:00,
2013-07-26 23:02:00,67.8,66.3,29.94,WSW,252,0.0,0.0,95,0.00,,---,0.08,0.00,VWS V14.01,2013-07-27 03:02:00,
2013-07-26 23:07:00,67.7,66.2,29.93,WSW,252,0.0,0.0,95,0.00,,---,0.08,0.00,VWS V14.01,2013-07-27 03:07:00,
2013-07-26 23:10:00,67.5,66.0,29.93,WSW,252,0.0,1.0,95,0.00,,---,0.08,0.00,VWS V14.01,2013-07-27 03:10:00,
2013-07-26 23:12:00,67.6,66.1,29.94,WSW,252,0.0,0.0,95,0.00,,---,0.08,0.00,VWS V14.01,2013-07-27 03:12:00,
2013-07-26 23:17:00,67.5,66.0,29.93,WSW,252,0.0,1.0,95,0.00,,---,0.08,0.00,VWS V14.01,2013-07-27 03:17:00,
2013-07-26 23:20:00,67.4,66.2,29.93,WSW,252,0.0,0.0,96,0.00,,---,0.08,0.00,VWS V14.01,2013-07-27 03:20:00,
2013-07-26 23:22:00,67.4,65.9,29.93,WSW,252,0.0,0.0,95,0.00,,---,0.08,0.00,VWS V14.01,2013-07-27 03:22:00,
2013-07-26 23:27:00,67.4,66.2,29.93,WSW,252,0.0,0.0,96,0.00,,---,0.08,0.00,VWS V14.01,2013-07-27 03:27:00,
2013-07-26 23:30:00,67.4,66.2,29.93,WSW,252,0.0,0.0,96,0.00,,---,0.08,0.00,VWS V14.01,2013-07-27 03:30:00,
2013-07-26 23:33:00,67.4,66.2,29.93,WSW,252,0.0,0.0,96,0.00,,---,0.08,0.00,VWS V14.01,2013-07-27 03:33:00,
2013-07-26 23:38:00,67.4,66.2,29.93,WSW,252,0.0,0.0,96,0.00,,---,0.08,0.00,VWS V14.01,2013-07-27 03:38:00,
2013-07-26 23:40:00,67.4,66.2,29.93,WSW,252,0.0,0.0,96,0.00,,---,0.08,0.00,VWS V14.01,2013-07-27 03:40:00,
2013-07-26 23:43:00,67.4,66.2,29.93,WSW,252,0.0,0.0,96,0.00,,---,0.08,0.00,VWS V14.01,2013-07-27 03:43:00,
2013-07-26 23:48:00,67.4,66.2,29.93,WSW,252,0.0,0.0,96,0.00,,---,0.08,0.00,VWS V14.01,2013-07-27 03:48:00,
2013-07-26 23:50:00,67.4,66.2,29.93,WSW,252,0.0,0.0,96,0.00,,---,0.08,0.00,VWS V14.01,2013-07-27 03:50:00,
2013-07-26 23:53:00,67.4,66.2,29.93,WSW,252,0.0,0.0,96,0.00,,---,0.08,0.00,VWS V14.01,2013-07-27 03:53:00,
2013-07-26 23:58:00,67.4,66.2,29.93,WSW,252,0.0,0.0,96,0.00,,---,0.08,0.00,VWS V14.01,2013-07-27 03:58:00,